Time;durP1;ratioP1;P1;durP2;ratioP2;P2;SDS_P1;SDS_P2;PMS_P1;PMS_P2;Temp;Humidity;BMP_temperature;BMP_pressure;BME280_temperature;BME280_humidity;BME280_pressure;Samples;Min_cycle;Max_cycle;Signal;HPM_P1;HPM_P2
2022/11/07 00:01:59;;;;;;;;;;;;;;;7.94;71.92;100926.44;5064767;28;19928;-55
2022/11/07 00:04:28;;;;;;;;;;;;;;;7.93;72.06;100911.66;5068408;28;20291;-57
2022/11/07 00:06:54;;;;;;;;;;;;;;;7.90;72.12;100916.16;5059998;28;19921;-56
2022/11/07 00:09:19;;;;;;;;;;;;;;;7.90;72.01;100919.66;5062116;28;19924;-60
2022/11/07 00:11:44;;;;;;;;;;;;;;;7.94;71.98;100921.19;5062586;28;19916;-56
2022/11/07 00:14:13;;;;;;;;;;;;;;;7.92;71.89;100915.22;5060431;28;19920;-56
2022/11/07 00:16:39;;;;;;;;;;;;;;;7.95;71.85;100919.44;5062286;28;20056;-61
2022/11/07 00:19:04;;;;;;;;;;;;;;;7.93;71.78;100926.53;5068075;28;20007;-56
2022/11/07 00:21:30;;;;;;;;;;;;;;;7.89;72.22;100923.19;5061527;28;19957;-60
2022/11/07 00:23:55;;;;;;;;;;;;;;;7.92;72.02;100922.19;5066101;28;19974;-56
2022/11/07 00:26:20;;;;;;;;;;;;;;;7.91;71.80;100915.25;5064208;28;19974;-62
2022/11/07 00:28:46;;;;;;;;;;;;;;;7.90;71.85;100906.56;5063148;28;19967;-58
2022/11/07 00:31:12;;;;;;;;;;;;;;;7.87;72.01;100917.16;5057452;28;20355;-59
2022/11/07 00:33:37;;;;;;;;;;;;;;;7.90;72.01;100911.81;5056122;28;19928;-56
2022/11/07 00:36:03;;;;;;;;;;;;;;;7.89;71.91;100912.72;5061483;28;19928;-56
2022/11/07 00:38:28;;;;;;;;;;;;;;;7.91;71.93;100913.50;5065455;28;20050;-58
2022/11/07 00:40:58;;;;;;;;;;;;;;;7.92;71.81;100909.97;5063524;28;19945;-57
2022/11/07 00:43:23;;;;;;;;;;;;;;;7.93;71.79;100922.16;5046094;28;19916;-59
2022/11/07 00:45:49;;;;;;;;;;;;;;;7.93;71.69;100908.19;5052796;28;19990;-56
2022/11/07 00:48:14;;;;;;;;;;;;;;;7.92;71.63;100914.34;5066226;28;19916;-57
2022/11/07 00:50:39;;;;;;;;;;;;;;;7.92;71.60;100909.97;5065936;28;19968;-57
2022/11/07 00:53:05;;;;;;;;;;;;;;;7.88;71.87;100908.38;5065272;28;20019;-57
2022/11/07 00:55:33;;;;;;;;;;;;;;;7.90;71.91;100909.19;5064414;28;19994;-57
2022/11/07 00:57:59;;;;;;;;;;;;;;;7.87;71.88;100904.06;5046568;28;20013;-58
2022/11/07 01:00:24;;;;;;;;;;;;;;;7.88;72.00;100892.66;5063102;28;21952;-59
2022/11/07 01:05:34;;;;;;;;;;;;;;;7.90;71.92;100888.22;5066174;28;19928;-58
2022/11/07 01:07:59;;;;;;;;;;;;;;;7.92;71.91;100883.75;5066257;28;19920;-55
2022/11/07 01:10:24;;;;;;;;;;;;;;;7.95;71.93;100888.00;5067801;28;20446;-58
2022/11/07 01:12:50;;;;;;;;;;;;;;;7.97;71.76;100895.78;5068676;28;20034;-56
2022/11/07 01:15:15;;;;;;;;;;;;;;;7.96;71.76;100894.94;5059742;28;19925;-55
2022/11/07 01:17:41;;;;;;;;;;;;;;;8.00;71.97;100883.41;5064837;28;19942;-56
2022/11/07 01:20:06;;;;;;;;;;;;;;;8.05;71.67;100880.59;5064179;28;19923;-57
2022/11/07 01:22:32;;;;;;;;;;;;;;;8.07;71.60;100876.13;5065393;28;21178;-56
2022/11/07 01:24:57;;;;;;;;;;;;;;;8.07;71.73;100873.50;5063264;28;19928;-59
2022/11/07 01:27:22;;;;;;;;;;;;;;;8.11;71.67;100869.81;5061968;28;19928;-58
2022/11/07 01:29:47;;;;;;;;;;;;;;;8.14;71.43;100876.72;5064906;28;20005;-59
2022/11/07 01:32:13;;;;;;;;;;;;;;;8.16;71.36;100875.72;5060873;28;19929;-56
2022/11/07 01:34:38;;;;;;;;;;;;;;;8.16;71.45;100867.84;5066689;28;19974;-57
2022/11/07 01:37:03;;;;;;;;;;;;;;;8.19;71.49;100874.72;5059889;28;19944;-58
2022/11/07 01:39:29;;;;;;;;;;;;;;;8.22;71.43;100864.94;5063948;28;20272;-57
2022/11/07 01:41:54;;;;;;;;;;;;;;;8.22;71.53;100864.94;5065465;28;20323;-56
2022/11/07 01:44:19;;;;;;;;;;;;;;;8.23;71.45;100871.91;5058515;28;19920;-58
2022/11/07 01:46:46;;;;;;;;;;;;;;;8.23;71.28;100869.28;5059472;28;20003;-57
2022/11/07 01:49:11;;;;;;;;;;;;;;;8.26;71.28;100872.66;5061514;28;19993;-57
2022/11/07 01:51:40;;;;;;;;;;;;;;;8.26;71.34;100865.66;5064252;28;20023;-56
2022/11/07 01:54:06;;;;;;;;;;;;;;;8.26;71.06;100862.16;5067583;28;19924;-58
2022/11/07 01:56:33;;;;;;;;;;;;;;;8.29;70.98;100859.41;5066858;28;19919;-58
2022/11/07 01:59:00;;;;;;;;;;;;;;;8.28;70.91;100861.19;5066092;28;19974;-59
2022/11/07 02:01:25;;;;;;;;;;;;;;;8.29;71.02;100862.91;5035239;28;20003;-55
2022/11/07 02:03:52;;;;;;;;;;;;;;;8.30;71.26;100871.59;5062337;28;20062;-58
2022/11/07 02:06:21;;;;;;;;;;;;;;;8.29;71.16;100860.28;5062270;28;20011;-56
2022/11/07 02:08:47;;;;;;;;;;;;;;;8.27;71.23;100858.63;5063675;28;19924;-57
2022/11/07 02:11:13;;;;;;;;;;;;;;;8.29;71.16;100864.66;5063182;28;20424;-57
2022/11/07 02:13:38;;;;;;;;;;;;;;;8.32;71.13;100865.34;5065017;28;19920;-59
2022/11/07 02:16:04;;;;;;;;;;;;;;;8.30;71.10;100867.22;5059889;28;19921;-56
2022/11/07 02:18:29;;;;;;;;;;;;;;;8.35;71.00;100872.25;5062616;28;20596;-56
2022/11/07 02:21:01;;;;;;;;;;;;;;;8.35;71.06;100859.13;5062572;28;19921;-55
2022/11/07 02:23:32;;;;;;;;;;;;;;;8.38;71.06;100865.06;5056184;28;19924;-54
2022/11/07 02:25:57;;;;;;;;;;;;;;;8.37;70.85;100855.50;5065207;28;20011;-58
2022/11/07 02:28:25;;;;;;;;;;;;;;;8.32;70.99;100857.50;5058728;28;20364;-58
2022/11/07 02:30:51;;;;;;;;;;;;;;;8.34;71.01;100854.81;5060117;28;19928;-56
2022/11/07 02:33:17;;;;;;;;;;;;;;;8.36;71.05;100850.34;5060793;28;19929;-57
2022/11/07 02:35:44;;;;;;;;;;;;;;;8.35;70.95;100846.03;5061280;28;19924;-58
2022/11/07 02:38:23;;;;;;;;;;;;;;;8.31;71.06;100845.31;5063089;28;20039;-59
2022/11/07 02:40:50;;;;;;;;;;;;;;;8.31;71.17;100845.31;5064156;28;19921;-55
2022/11/07 02:43:18;;;;;;;;;;;;;;;8.32;71.18;100851.41;5061546;28;19978;-57
2022/11/07 02:45:45;;;;;;;;;;;;;;;8.29;71.18;100843.69;5058047;28;20438;-57
2022/11/07 02:48:10;;;;;;;;;;;;;;;8.30;71.40;100843.63;5058224;28;19928;-58
2022/11/07 02:50:35;;;;;;;;;;;;;;;8.31;71.22;100853.19;5062360;28;19920;-57
2022/11/07 02:53:01;;;;;;;;;;;;;;;8.32;71.25;100848.78;5062067;28;20449;-58
2022/11/07 02:55:26;;;;;;;;;;;;;;;8.34;71.23;100852.19;5063744;28;19939;-58
2022/11/07 02:57:51;;;;;;;;;;;;;;;8.31;71.27;100853.19;5061909;28;19921;-56
2022/11/07 03:00:17;;;;;;;;;;;;;;;8.30;71.51;100850.63;5059183;28;19934;-59
2022/11/07 03:02:45;;;;;;;;;;;;;;;8.33;71.46;100860.97;5056935;28;19951;-59
2022/11/07 03:05:11;;;;;;;;;;;;;;;8.32;71.25;100854.03;5058348;28;20359;-58
2022/11/07 03:07:37;;;;;;;;;;;;;;;8.30;71.44;100853.25;5058613;28;20391;-57
2022/11/07 03:10:02;;;;;;;;;;;;;;;8.32;71.50;100854.03;5057949;28;19974;-58
2022/11/07 03:12:27;;;;;;;;;;;;;;;8.35;71.34;100851.28;5058806;28;19982;-56
2022/11/07 03:14:53;;;;;;;;;;;;;;;8.38;71.34;100853.75;5056917;28;20408;-56
2022/11/07 03:17:18;;;;;;;;;;;;;;;8.38;71.40;100849.34;5056784;28;19955;-57
2022/11/07 03:19:43;;;;;;;;;;;;;;;8.42;71.29;100854.47;5060202;28;19920;-58
2022/11/07 03:22:09;;;;;;;;;;;;;;;8.43;71.12;100853.53;5059689;28;19950;-56
2022/11/07 03:24:34;;;;;;;;;;;;;;;8.43;71.35;100851.75;5056509;28;20392;-56
2022/11/07 03:26:59;;;;;;;;;;;;;;;8.45;71.13;100854.31;5056803;28;20287;-58
2022/11/07 03:29:25;;;;;;;;;;;;;;;8.42;71.24;100849.22;5056840;28;19970;-55
2022/11/07 03:31:50;;;;;;;;;;;;;;;8.44;71.32;100858.69;5055651;28;20041;-58
2022/11/07 03:34:15;;;;;;;;;;;;;;;8.45;71.11;100860.41;5062309;28;19931;-57
2022/11/07 03:36:40;;;;;;;;;;;;;;;8.50;71.23;100858.44;5060007;28;20011;-57
2022/11/07 03:39:06;;;;;;;;;;;;;;;8.49;71.06;100859.38;5054987;28;19924;-55
2022/11/07 03:41:31;;;;;;;;;;;;;;;8.52;70.99;100861.84;5073081;28;19916;-59
2022/11/07 03:43:56;;;;;;;;;;;;;;;8.53;71.11;100874.06;5058019;28;19946;-54
2022/11/07 03:46:22;;;;;;;;;;;;;;;8.51;71.07;100875.03;5057242;28;19925;-56
2022/11/07 03:48:47;;;;;;;;;;;;;;;8.50;70.98;100874.19;5057124;28;19929;-57
2022/11/07 03:51:12;;;;;;;;;;;;;;;8.52;71.14;100871.47;5060980;28;19921;-58
2022/11/07 03:53:38;;;;;;;;;;;;;;;8.52;71.02;100867.09;5053622;28;19944;-58
2022/11/07 03:56:07;;;;;;;;;;;;;;;8.52;71.12;100872.34;5058709;28;19928;-56
2022/11/07 03:58:32;;;;;;;;;;;;;;;8.52;71.28;100871.47;5057058;28;19970;-57
2022/11/07 04:00:58;;;;;;;;;;;;;;;8.51;71.13;100872.41;5061331;28;19924;-56
2022/11/07 04:03:23;;;;;;;;;;;;;;;8.51;71.26;100861.91;5062430;28;19920;-62
2022/11/07 04:05:48;;;;;;;;;;;;;;;8.49;71.48;100867.25;5058521;28;19940;-56
2022/11/07 04:08:13;;;;;;;;;;;;;;;8.54;71.20;100870.50;5063542;28;19977;-56
2022/11/07 04:10:39;;;;;;;;;;;;;;;8.56;71.23;100866.94;5066139;28;19920;-56
2022/11/07 04:18:32;;;;;;;;;;;;;;;8.54;71.32;100873.13;5064047;28;19923;-59
2022/11/07 04:20:57;;;;;;;;;;;;;;;8.57;71.26;100880.00;5065654;28;19925;-56
2022/11/07 04:23:23;;;;;;;;;;;;;;;8.62;71.25;100877.16;5066357;28;19921;-56
2022/11/07 04:28:32;;;;;;;;;;;;;;;8.65;71.10;100879.63;5059547;28;19924;-56
2022/11/07 04:30:57;;;;;;;;;;;;;;;8.63;71.17;100879.69;5065014;28;19924;-57
2022/11/07 04:33:22;;;;;;;;;;;;;;;8.65;71.11;100884.88;5068939;28;20407;-56
2022/11/07 04:35:48;;;;;;;;;;;;;;;8.65;71.10;100882.25;5062811;28;19956;-56
2022/11/07 04:38:13;;;;;;;;;;;;;;;8.67;71.10;100881.25;5064147;28;19967;-57
2022/11/07 04:40:38;;;;;;;;;;;;;;;8.66;71.11;100879.53;5062369;28;20004;-57
2022/11/07 04:43:07;;;;;;;;;;;;;;;8.67;71.11;100877.78;5062395;28;19975;-56
2022/11/07 04:45:36;;;;;;;;;;;;;;;8.71;71.00;100887.19;5063522;28;19920;-57
2022/11/07 04:48:02;;;;;;;;;;;;;;;8.71;71.13;100876.69;5066342;28;19920;-56
2022/11/07 04:50:28;;;;;;;;;;;;;;;8.71;71.05;100881.09;5065664;28;19931;-61
2022/11/07 04:52:53;;;;;;;;;;;;;;;8.73;71.10;100876.63;5068299;28;19916;-56
2022/11/07 04:55:23;;;;;;;;;;;;;;;8.74;70.99;100881.81;5064731;28;19944;-58
2022/11/07 04:57:48;;;;;;;;;;;;;;;8.73;71.07;100877.47;5061443;28;19920;-56
2022/11/07 05:00:14;;;;;;;;;;;;;;;8.71;71.04;100876.69;5061211;28;20476;-56
2022/11/07 05:02:40;;;;;;;;;;;;;;;8.70;71.12;100872.38;5062801;28;19960;-60
2022/11/07 05:05:05;;;;;;;;;;;;;;;8.75;71.14;100878.25;5063939;28;19924;-58
2022/11/07 05:07:30;;;;;;;;;;;;;;;8.76;71.22;100877.34;5064635;28;20396;-56
2022/11/07 05:09:56;;;;;;;;;;;;;;;8.76;71.14;100874.72;5066976;28;19929;-56
2022/11/07 05:12:21;;;;;;;;;;;;;;;8.77;71.04;100870.34;5060429;28;19967;-56
2022/11/07 05:14:46;;;;;;;;;;;;;;;8.76;71.15;100879.13;5061242;28;19936;-60
2022/11/07 05:17:14;;;;;;;;;;;;;;;8.80;71.11;100881.53;5052718;28;19960;-55
2022/11/07 05:19:41;;;;;;;;;;;;;;;8.81;70.98;100879.72;5035850;28;19929;-58
2022/11/07 05:24:51;;;;;;;;;;;;;;;8.84;70.84;100877.84;5057673;28;19922;-59
2022/11/07 05:27:20;;;;;;;;;;;;;;;8.88;70.92;100880.28;5060055;28;19920;-59
2022/11/07 05:29:45;;;;;;;;;;;;;;;8.90;70.94;100886.31;5047603;28;19924;-56
2022/11/07 05:32:11;;;;;;;;;;;;;;;8.93;70.88;100881.75;5056798;28;19920;-58
2022/11/07 05:34:36;;;;;;;;;;;;;;;8.94;70.78;100893.13;5059172;28;19975;-59
2022/11/07 05:37:01;;;;;;;;;;;;;;;8.94;70.80;100883.47;5061865;28;20308;-55
2022/11/07 05:39:26;;;;;;;;;;;;;;;8.95;70.88;100886.94;5054998;28;19920;-57
2022/11/07 05:41:52;;;;;;;;;;;;;;;8.92;70.93;100895.84;5059490;28;19928;-55
2022/11/07 05:44:17;;;;;;;;;;;;;;;8.92;70.82;100893.22;5061903;28;19927;-59
2022/11/07 05:46:42;;;;;;;;;;;;;;;8.92;70.95;100900.22;5063159;28;19916;-58
2022/11/07 05:49:08;;;;;;;;;;;;;;;8.88;71.04;100899.53;5065861;28;19924;-60
2022/11/07 05:51:33;;;;;;;;;;;;;;;8.88;71.10;100901.28;5057954;28;19920;-59
2022/11/07 05:53:58;;;;;;;;;;;;;;;8.90;71.15;100902.06;5055069;28;19929;-55
2022/11/07 05:56:24;;;;;;;;;;;;;;;8.89;71.36;100908.22;5054483;28;20475;-57
2022/11/07 05:58:49;;;;;;;;;;;;;;;8.89;71.34;100910.84;5064215;28;19920;-59
2022/11/07 06:01:14;;;;;;;;;;;;;;;8.93;71.33;100907.16;5067883;28;19917;-58
2022/11/07 06:03:39;;;;;;;;;;;;;;;8.91;71.42;100914.25;5065189;28;19928;-59
2022/11/07 06:06:05;;;;;;;;;;;;;;;8.94;71.43;100908.88;5062327;28;19956;-57
2022/11/07 06:08:30;;;;;;;;;;;;;;;8.97;71.26;100911.34;5064664;28;20291;-58
2022/11/07 06:10:55;;;;;;;;;;;;;;;8.97;71.40;100916.59;5046573;28;19924;-58
2022/11/07 06:13:21;;;;;;;;;;;;;;;8.97;71.50;100916.59;5063501;28;20447;-55
2022/11/07 06:15:46;;;;;;;;;;;;;;;8.98;71.50;100921.75;5068651;28;19912;-56
2022/11/07 06:18:18;;;;;;;;;;;;;;;8.99;71.46;100930.50;5065695;28;20421;-59
2022/11/07 06:20:44;;;;;;;;;;;;;;;9.04;71.51;100930.28;5063639;28;19962;-59
2022/11/07 06:23:10;;;;;;;;;;;;;;;9.04;71.49;100925.88;5063706;28;20314;-57
2022/11/07 06:25:35;;;;;;;;;;;;;;;9.06;71.42;100934.53;5066605;28;20263;-60
2022/11/07 06:28:03;;;;;;;;;;;;;;;9.06;71.58;100934.53;5064128;28;20346;-56
2022/11/07 06:30:28;;;;;;;;;;;;;;;9.07;71.55;100940.63;5067065;28;19927;-57
2022/11/07 06:32:54;;;;;;;;;;;;;;;9.07;71.49;100951.97;5069004;28;19917;-59
2022/11/07 06:35:19;;;;;;;;;;;;;;;9.08;71.55;100953.69;5042529;28;19932;-58
2022/11/07 06:37:47;;;;;;;;;;;;;;;9.10;71.58;100954.44;5065642;28;20204;-57
2022/11/07 06:40:13;;;;;;;;;;;;;;;9.08;71.63;100960.69;5063199;28;19929;-56
2022/11/07 06:42:38;;;;;;;;;;;;;;;9.11;71.69;100958.78;5075723;28;20205;-57
2022/11/07 06:45:03;;;;;;;;;;;;;;;9.17;71.45;100956.75;5065063;28;19924;-57
2022/11/07 06:47:29;;;;;;;;;;;;;;;9.18;71.59;100963.72;5064690;28;19967;-56
2022/11/07 06:49:54;;;;;;;;;;;;;;;9.20;71.51;100968.00;5068436;28;20014;-58
2022/11/07 06:52:19;;;;;;;;;;;;;;;9.24;71.51;100964.28;5062046;28;19939;-59
2022/11/07 06:54:44;;;;;;;;;;;;;;;9.27;71.57;100968.53;5061819;28;21392;-55
2022/11/07 06:57:10;;;;;;;;;;;;;;;9.30;71.34;100976.28;5056599;28;19927;-56
2022/11/07 06:59:35;;;;;;;;;;;;;;;9.34;71.33;100972.56;5065884;28;20015;-57
2022/11/07 07:02:01;;;;;;;;;;;;;;;9.35;71.44;100982.13;5064866;28;19923;-57
2022/11/07 07:04:26;;;;;;;;;;;;;;;9.34;71.41;100977.81;5068063;28;20001;-59
2022/11/07 07:06:51;;;;;;;;;;;;;;;9.39;71.35;100977.56;5064774;28;19935;-56
2022/11/07 07:09:16;;;;;;;;;;;;;;;9.42;71.37;100983.56;5063758;28;20403;-58
2022/11/07 07:11:43;;;;;;;;;;;;;;;9.45;71.15;100980.75;5063579;28;19978;-57
2022/11/07 07:14:09;;;;;;;;;;;;;;;9.46;71.35;100982.44;5061363;28;20488;-56
2022/11/07 07:16:34;;;;;;;;;;;;;;;9.46;71.33;100979.00;5064195;28;20019;-59
2022/11/07 07:18:59;;;;;;;;;;;;;;;9.46;71.46;100985.09;5042732;28;20441;-57
2022/11/07 07:21:25;;;;;;;;;;;;;;;9.49;71.40;100983.22;5045574;28;19935;-59
2022/11/07 07:23:50;;;;;;;;;;;;;;;9.51;71.31;100981.38;5067179;28;19916;-59
2022/11/07 07:26:15;;;;;;;;;;;;;;;9.55;71.30;100982.94;5064723;28;19994;-57
2022/11/07 07:28:41;;;;;;;;;;;;;;;9.59;71.28;100984.50;5063825;28;19967;-59
2022/11/07 07:31:13;;;;;;;;;;;;;;;9.63;71.21;100991.28;5068647;28;19924;-58
2022/11/07 07:33:38;;;;;;;;;;;;;;;9.67;71.09;100992.84;5066588;28;20296;-57
2022/11/07 07:36:04;;;;;;;;;;;;;;;9.70;71.02;100986.56;5068979;28;19923;-59
2022/11/07 07:38:29;;;;;;;;;;;;;;;9.71;70.97;100997.03;5063007;28;19921;-57
2022/11/07 07:40:55;;;;;;;;;;;;;;;9.74;70.94;100999.50;5062324;28;19999;-59
2022/11/07 07:43:21;;;;;;;;;;;;;;;9.78;70.79;100992.31;5067834;28;19923;-56
2022/11/07 07:45:46;;;;;;;;;;;;;;;9.80;70.87;100987.81;5064962;28;19921;-57
2022/11/07 07:48:11;;;;;;;;;;;;;;;9.82;70.74;100985.09;5066861;28;19916;-55
2022/11/07 07:50:37;;;;;;;;;;;;;;;9.86;70.49;100991.91;5081024;28;19962;-57
2022/11/07 07:53:02;;;;;;;;;;;;;;;9.91;70.54;100984.63;5067326;28;19947;-58
2022/11/07 07:55:27;;;;;;;;;;;;;;;9.98;70.41;100990.44;5067663;28;19925;-59
2022/11/07 07:57:52;;;;;;;;;;;;;;;9.99;70.18;100993.00;5068367;28;19921;-57
2022/11/07 08:00:18;;;;;;;;;;;;;;;10.00;70.10;100994.69;5067608;28;19925;-55
2022/11/07 08:02:43;;;;;;;;;;;;;;;10.03;69.97;100993.66;5066142;28;20444;-59
2022/11/07 08:05:10;;;;;;;;;;;;;;;10.09;69.85;100997.75;5065916;28;19924;-55
2022/11/07 08:07:35;;;;;;;;;;;;;;;10.13;69.79;100994.06;5065530;28;20423;-58
2022/11/07 08:10:00;;;;;;;;;;;;;;;10.14;69.77;100998.38;5066256;28;19920;-59
2022/11/07 08:12:26;;;;;;;;;;;;;;;10.21;69.66;100994.50;5064798;28;19920;-60
2022/11/07 08:14:51;;;;;;;;;;;;;;;10.26;69.58;101002.16;5048297;28;19929;-56
2022/11/07 08:17:16;;;;;;;;;;;;;;;10.29;69.31;100992.31;5068194;28;19920;-56
2022/11/07 08:19:41;;;;;;;;;;;;;;;10.33;69.24;100996.50;5053234;28;19917;-57
2022/11/07 08:22:07;;;;;;;;;;;;;;;10.38;69.11;100993.66;5065378;28;19921;-59
2022/11/07 08:24:32;;;;;;;;;;;;;;;10.38;68.95;100993.66;5066457;28;20455;-56
2022/11/07 08:26:57;;;;;;;;;;;;;;;10.41;69.15;101001.38;5065470;28;19924;-59
2022/11/07 08:29:23;;;;;;;;;;;;;;;10.45;69.02;100997.63;5067221;28;19931;-60
2022/11/07 08:31:49;;;;;;;;;;;;;;;10.49;68.80;100996.56;5067733;28;20502;-58
2022/11/07 08:34:15;;;;;;;;;;;;;;;10.52;68.67;100990.28;5068541;28;19920;-58
2022/11/07 08:36:40;;;;;;;;;;;;;;;10.58;68.76;100991.75;5060586;28;19931;-59
2022/11/07 08:39:05;;;;;;;;;;;;;;;10.63;68.56;100998.47;5064198;28;20295;-58
2022/11/07 08:41:31;;;;;;;;;;;;;;;10.67;68.38;100991.25;5066799;28;19924;-58
2022/11/07 08:43:56;;;;;;;;;;;;;;;10.73;68.38;100987.41;5065342;28;20058;-61
2022/11/07 08:46:21;;;;;;;;;;;;;;;10.78;68.31;100993.28;5064856;28;20323;-57
2022/11/07 08:48:46;;;;;;;;;;;;;;;10.82;68.18;100985.13;5065643;28;19920;-59
2022/11/07 08:51:12;;;;;;;;;;;;;;;10.86;67.82;101001.59;5066699;28;19928;-58
2022/11/07 08:53:37;;;;;;;;;;;;;;;10.88;67.40;100999.75;5063331;28;19965;-58
2022/11/07 08:56:04;;;;;;;;;;;;;;;10.93;67.49;101000.34;5071275;28;19929;-59
2022/11/07 08:58:29;;;;;;;;;;;;;;;10.95;67.56;101009.03;5069495;28;20300;-58
2022/11/07 09:00:55;;;;;;;;;;;;;;;11.00;67.49;101014.03;5065877;28;20435;-59
2022/11/07 09:03:20;;;;;;;;;;;;;;;11.03;67.54;101016.50;5070470;28;19920;-57
2022/11/07 09:05:45;;;;;;;;;;;;;;;11.07;67.29;101017.16;5072367;28;20291;-57
2022/11/07 09:08:10;;;;;;;;;;;;;;;11.09;66.97;101007.41;5071570;28;19963;-58
2022/11/07 09:10:36;;;;;;;;;;;;;;;11.07;66.93;101019.81;5069267;28;19966;-57
2022/11/07 09:13:01;;;;;;;;;;;;;;;11.10;67.04;101022.28;5068396;28;19935;-58
2022/11/07 09:15:27;;;;;;;;;;;;;;;11.15;67.13;101024.66;5068310;28;19936;-57
2022/11/07 09:17:52;;;;;;;;;;;;;;;11.16;67.03;101027.19;5068857;28;19977;-57
2022/11/07 09:20:18;;;;;;;;;;;;;;;11.21;66.79;101033.03;5064132;28;19916;-61
2022/11/07 09:22:44;;;;;;;;;;;;;;;11.22;66.32;101031.25;5069428;28;20319;-60
2022/11/07 09:25:09;;;;;;;;;;;;;;;11.28;66.27;101031.75;5066770;28;19929;-61
2022/11/07 09:27:35;;;;;;;;;;;;;;;11.31;66.46;101038.66;5067770;28;20344;-60
2022/11/07 09:30:00;;;;;;;;;;;;;;;11.35;66.16;101036.69;5063746;28;19916;-60
2022/11/07 09:32:26;;;;;;;;;;;;;;;11.38;66.18;101032.09;5068276;28;19920;-59
2022/11/07 09:34:51;;;;;;;;;;;;;;;11.44;66.18;101041.44;5072087;28;19966;-57
2022/11/07 09:37:16;;;;;;;;;;;;;;;11.49;65.98;101041.19;5067801;28;19970;-60
2022/11/07 09:39:44;;;;;;;;;;;;;;;11.50;66.05;101041.09;5068315;28;20015;-58
2022/11/07 09:42:15;;;;;;;;;;;;;;;11.52;65.84;101041.88;5069625;28;19916;-58
2022/11/07 09:44:49;;;;;;;;;;;;;;;11.52;65.64;101046.25;5064887;28;21314;-60
2022/11/07 09:47:18;;;;;;;;;;;;;;;11.52;65.59;101044.50;5071673;28;19912;-58
2022/11/07 09:49:48;;;;;;;;;;;;;;;11.53;65.40;101035.66;5068811;28;20507;-57
2022/11/07 09:52:34;;;;;;;;;;;;;;;11.50;65.71;101035.81;5067804;28;19917;-57
2022/11/07 09:55:17;;;;;;;;;;;;;;;11.51;65.41;101047.19;5072210;28;19932;-58
2022/11/07 09:57:44;;;;;;;;;;;;;;;11.54;65.58;101047.03;5068024;28;19924;-59
2022/11/07 10:00:19;;;;;;;;;;;;;;;11.54;65.72;101052.31;5068945;28;19916;-60
2022/11/07 10:03:03;;;;;;;;;;;;;;;11.58;65.67;101049.41;5069591;28;19923;-58
2022/11/07 10:05:43;;;;;;;;;;;;;;;11.65;65.71;101042.00;5066694;28;20402;-58
2022/11/07 10:08:21;;;;;;;;;;;;;;;11.70;65.49;101036.47;5065283;28;20178;-58
2022/11/07 10:10:59;;;;;;;;;;;;;;;11.77;65.34;101042.25;5068707;28;19920;-58
2022/11/07 10:13:31;;;;;;;;;;;;;;;11.79;65.13;101046.47;5064112;28;20073;-59
2022/11/07 10:15:59;;;;;;;;;;;;;;;11.84;65.15;101041.78;5070874;28;19916;-59
2022/11/07 10:18:30;;;;;;;;;;;;;;;11.86;65.13;101039.91;5067724;28;19923;-58
2022/11/07 10:21:01;;;;;;;;;;;;;;;11.91;65.11;101039.66;5066945;28;19947;-58
2022/11/07 10:23:44;;;;;;;;;;;;;;;11.96;65.03;101036.72;5064668;28;19916;-61
2022/11/07 10:26:11;;;;;;;;;;;;;;;11.99;64.89;101041.88;5067014;28;20295;-61
2022/11/07 10:28:43;;;;;;;;;;;;;;;12.02;64.88;101036.41;5066694;28;19929;-61
2022/11/07 10:31:10;;;;;;;;;;;;;;;12.07;65.08;101039.59;5071407;28;19920;-59
2022/11/07 10:33:38;;;;;;;;;;;;;;;12.08;64.60;101043.94;5069520;28;20003;-57
2022/11/07 10:36:15;;;;;;;;;;;;;;;12.11;64.45;101046.41;5068625;28;19928;-57
2022/11/07 10:38:41;;;;;;;;;;;;;;;12.12;64.56;101040.19;5069001;28;19924;-60
2022/11/07 10:41:12;;;;;;;;;;;;;;;12.15;64.72;101037.38;5068860;28;20314;-57
2022/11/07 10:43:39;;;;;;;;;;;;;;;12.20;64.63;101050.28;5064536;28;20308;-58
2022/11/07 10:46:09;;;;;;;;;;;;;;;12.28;64.71;101047.19;5068634;28;19955;-58
2022/11/07 10:48:35;;;;;;;;;;;;;;;12.31;64.36;101039.94;5068724;28;19919;-59
2022/11/07 10:51:00;;;;;;;;;;;;;;;12.35;64.45;101040.59;5068675;28;19928;-58
2022/11/07 10:53:25;;;;;;;;;;;;;;;12.40;64.62;101037.69;5065119;28;19920;-58
2022/11/07 10:55:53;;;;;;;;;;;;;;;12.48;64.72;101048.63;5048519;28;19929;-61
2022/11/07 10:58:19;;;;;;;;;;;;;;;12.55;64.46;101046.44;5067576;28;20050;-57
2022/11/07 11:00:55;;;;;;;;;;;;;;;12.59;64.15;101042.69;5068480;28;19995;-57
2022/11/07 11:03:24;;;;;;;;;;;;;;;12.62;64.12;101039.88;5068601;28;19916;-61
2022/11/07 11:05:49;;;;;;;;;;;;;;;12.65;64.24;101035.25;5067651;28;19952;-61
2022/11/07 11:08:16;;;;;;;;;;;;;;;12.66;64.15;101038.72;5067625;28;20006;-57
2022/11/07 11:10:42;;;;;;;;;;;;;;;12.60;64.07;101029.38;5067954;28;19920;-58
2022/11/07 11:13:27;;;;;;;;;;;;;;;12.51;64.11;101035.25;5065129;28;20073;-59
2022/11/07 11:15:54;;;;;;;;;;;;;;;12.42;64.37;101018.19;5066765;28;19923;-58
2022/11/07 11:18:19;;;;;;;;;;;;;;;12.33;64.65;101018.72;5064818;28;19966;-58
2022/11/07 11:20:52;;;;;;;;;;;;;;;12.26;65.01;101027.97;5067661;28;20299;-59
2022/11/07 11:23:19;;;;;;;;;;;;;;;12.19;65.39;101022.22;5068122;28;19912;-59
2022/11/07 11:25:47;;;;;;;;;;;;;;;12.13;65.63;101018.16;5064818;28;19928;-59
2022/11/07 11:28:32;;;;;;;;;;;;;;;12.07;66.04;101018.50;5067402;28;19916;-57
2022/11/07 11:31:00;;;;;;;;;;;;;;;12.04;66.27;101016.03;5066730;28;19920;-59
2022/11/07 11:33:31;;;;;;;;;;;;;;;12.00;66.28;101011.91;5068869;28;19951;-57
2022/11/07 11:36:07;;;;;;;;;;;;;;;11.98;66.15;101019.03;5068478;28;19917;-57
2022/11/07 11:38:36;;;;;;;;;;;;;;;11.97;66.49;101009.41;5068258;28;19936;-57
2022/11/07 11:41:22;;;;;;;;;;;;;;;11.98;66.56;101014.63;5044297;28;19951;-60
2022/11/07 11:43:50;;;;;;;;;;;;;;;11.97;66.71;101015.53;5033027;28;19924;-60
2022/11/07 11:46:32;;;;;;;;;;;;;;;12.00;66.61;101006.63;5064228;28;19985;-57
2022/11/07 11:49:00;;;;;;;;;;;;;;;12.01;66.62;101008.34;5069015;28;20043;-56
2022/11/07 11:51:38;;;;;;;;;;;;;;;12.04;66.84;101013.41;5066054;28;19925;-56
2022/11/07 11:54:06;;;;;;;;;;;;;;;12.07;66.70;101018.50;5067840;28;19920;-59
2022/11/07 11:56:32;;;;;;;;;;;;;;;12.12;66.70;101020.88;5067162;28;20413;-58
2022/11/07 11:58:57;;;;;;;;;;;;;;;12.14;66.76;101004.03;5065348;28;19995;-56
2022/11/07 12:01:30;;;;;;;;;;;;;;;12.17;66.43;101008.25;5066709;28;19959;-59
2022/11/07 12:04:24;;;;;;;;;;;;;;;12.20;66.32;101006.28;5068971;28;19917;-59
2022/11/07 12:06:52;;;;;;;;;;;;;;;12.26;66.34;101012.13;5066346;28;19917;-58
2022/11/07 12:09:26;;;;;;;;;;;;;;;12.32;66.19;101006.50;5064366;28;19917;-60
2022/11/07 12:11:58;;;;;;;;;;;;;;;12.39;66.22;101001.69;5064290;28;19920;-58
2022/11/07 12:14:23;;;;;;;;;;;;;;;12.44;66.00;101000.47;5062185;28;19925;-58
2022/11/07 12:17:00;;;;;;;;;;;;;;;12.51;65.75;101006.22;5067416;28;19931;-58
2022/11/07 12:19:29;;;;;;;;;;;;;;;12.54;65.89;101010.44;5066172;28;19924;-60
2022/11/07 12:22:03;;;;;;;;;;;;;;;12.56;65.95;101000.63;5064420;28;20423;-57
2022/11/07 12:24:44;;;;;;;;;;;;;;;12.56;66.11;101000.63;5067669;28;19929;-61
2022/11/07 12:27:09;;;;;;;;;;;;;;;12.56;65.90;101001.47;5067518;28;19920;-59
2022/11/07 12:29:47;;;;;;;;;;;;;;;12.57;65.84;100991.78;5064766;28;19970;-58
2022/11/07 12:32:12;;;;;;;;;;;;;;;12.60;65.99;100999.50;5070529;28;19995;-59
2022/11/07 12:35:00;;;;;;;;;;;;;;;12.63;66.04;101002.81;5071751;28;20035;-57
2022/11/07 12:37:37;;;;;;;;;;;;;;;12.70;66.11;100997.16;5069674;28;19917;-57
2022/11/07 12:40:03;;;;;;;;;;;;;;;12.75;66.04;100997.69;5071865;28;19912;-60
2022/11/07 12:42:47;;;;;;;;;;;;;;;12.77;65.85;100996.66;5070931;28;19925;-59
2022/11/07 12:45:21;;;;;;;;;;;;;;;12.80;65.89;100988.53;5070833;28;19916;-59
2022/11/07 12:47:46;;;;;;;;;;;;;;;12.84;65.76;100990.97;5069094;28;20283;-59
2022/11/07 12:50:30;;;;;;;;;;;;;;;12.85;65.51;100988.25;5071758;28;19920;-57
2022/11/07 12:53:03;;;;;;;;;;;;;;;12.86;65.67;100991.75;5069746;28;19919;-57
2022/11/07 12:55:32;;;;;;;;;;;;;;;12.88;65.56;100988.03;5068132;28;19927;-59
2022/11/07 12:57:58;;;;;;;;;;;;;;;12.94;65.52;100992.94;5068736;28;20290;-59